Corfu, Greece
Current Conditions -  °F | °C
As of 3:20 AM on Saturday 20 Dec 2014 (Local Time) from LGKR Reporting Station
Few Clouds Few Clouds  
Wind Chill: 43°   Ceiling: Unl
Heat Index: 43°   Visibility: 4mi
Dew Point: 43°   Wind: 0mph
Humidity: 100%   Direction: NA
Pressure: 30.21"   Gusts: NA
Location:  39.62°N, 19.92°E
Report Text: LGKR 200120Z 00000KT 7000 FEW015 06/06 Q1023 NOSIG
Loading
Personal Weather Stations






























Interactive Weather Map New forecast layout! Learn more

10-Day Weather Forecast

Advertisements
Track Severe Weather on mobile